Terminal Aerodrome Forecast
Issued by NWS

Home | Current Version | Previous Version | Text Only | Print | Product List | Glossary On
Versions: 1 2 3 4 5 6 7 8 9 10 11 12 13 14 15 16
000
FTUS42 KMLB 252300 RRA
TAFISM
TAF
KISM 252349Z 2600/2624 22005KT P6SM SCT100
     FM260900 22010KT P6SM VCSH BKN030 BKN050
     FM261500 26015G22KT P6SM SCT030
      AMD NOT SKED 2603/2612=

USA.gov is the U.S. government's official web portal to all federal, state and local government web resources and services.